sensor_id;sensor_type;location;lat;lon;timestamp;temperature;humidity
49777;DHT22;35673;51.482;7.436;2022-07-23T00:02:17;18.50;99.90
49777;DHT22;35673;51.482;7.436;2022-07-23T00:04:43;18.50;99.90
49777;DHT22;35673;51.482;7.436;2022-07-23T00:07:08;18.50;99.90
49777;DHT22;35673;51.482;7.436;2022-07-23T00:09:34;18.40;99.90
49777;DHT22;35673;51.482;7.436;2022-07-23T00:11:59;18.40;99.90
49777;DHT22;35673;51.482;7.436;2022-07-23T00:14:25;18.40;99.90
49777;DHT22;35673;51.482;7.436;2022-07-23T00:16:50;18.40;99.90
49777;DHT22;35673;51.482;7.436;2022-07-23T00:19:16;18.40;99.90
49777;DHT22;35673;51.482;7.436;2022-07-23T00:21:41;18.40;99.90
49777;DHT22;35673;51.482;7.436;2022-07-23T00:24:07;18.40;99.90
49777;DHT22;35673;51.482;7.436;2022-07-23T00:26:32;18.30;99.90
49777;DHT22;35673;51.482;7.436;2022-07-23T00:28:57;18.30;99.90
49777;DHT22;35673;51.482;7.436;2022-07-23T00:31:23;18.30;99.90
49777;DHT22;35673;51.482;7.436;2022-07-23T00:33:48;18.30;99.90
49777;DHT22;35673;51.482;7.436;2022-07-23T00:36:14;18.30;99.90
49777;DHT22;35673;51.482;7.436;2022-07-23T00:38:39;18.30;99.90
49777;DHT22;35673;51.482;7.436;2022-07-23T00:41:05;18.20;99.90
49777;DHT22;35673;51.482;7.436;2022-07-23T00:43:30;18.20;99.90
49777;DHT22;35673;51.482;7.436;2022-07-23T00:45:56;18.30;99.90
49777;DHT22;35673;51.482;7.436;2022-07-23T00:48:21;18.30;99.90
49777;DHT22;35673;51.482;7.436;2022-07-23T00:50:47;18.20;99.90
49777;DHT22;35673;51.482;7.436;2022-07-23T00:53:13;18.20;99.90
49777;DHT22;35673;51.482;7.436;2022-07-23T00:55:38;18.20;99.90
49777;DHT22;35673;51.482;7.436;2022-07-23T00:58:04;18.20;99.90
49777;DHT22;35673;51.482;7.436;2022-07-23T01:00:30;18.20;99.90
49777;DHT22;35673;51.482;7.436;2022-07-23T01:02:55;18.20;99.90
49777;DHT22;35673;51.482;7.436;2022-07-23T01:05:21;18.20;99.90
49777;DHT22;35673;51.482;7.436;2022-07-23T01:07:49;18.20;99.90
49777;DHT22;35673;51.482;7.436;2022-07-23T01:10:15;18.30;99.90
49777;DHT22;35673;51.482;7.436;2022-07-23T01:13:00;18.30;99.90
49777;DHT22;35673;51.482;7.436;2022-07-23T01:15:25;18.30;99.90
49777;DHT22;35673;51.482;7.436;2022-07-23T01:17:51;18.20;99.90
49777;DHT22;35673;51.482;7.436;2022-07-23T01:20:17;18.20;99.90
49777;DHT22;35673;51.482;7.436;2022-07-23T01:22:43;18.20;99.90
49777;DHT22;35673;51.482;7.436;2022-07-23T01:25:08;18.20;99.90
49777;DHT22;35673;51.482;7.436;2022-07-23T01:27:34;18.20;99.90
49777;DHT22;35673;51.482;7.436;2022-07-23T01:30:00;18.20;99.90
49777;DHT22;35673;51.482;7.436;2022-07-23T01:32:25;18.20;99.90
49777;DHT22;35673;51.482;7.436;2022-07-23T01:34:51;18.20;99.90
49777;DHT22;35673;51.482;7.436;2022-07-23T01:37:16;18.20;99.90
49777;DHT22;35673;51.482;7.436;2022-07-23T01:39:42;18.20;99.90
49777;DHT22;35673;51.482;7.436;2022-07-23T01:42:07;18.10;99.90
49777;DHT22;35673;51.482;7.436;2022-07-23T01:44:33;18.20;99.90
49777;DHT22;35673;51.482;7.436;2022-07-23T01:46:58;18.20;99.90
49777;DHT22;35673;51.482;7.436;2022-07-23T01:49:24;18.10;99.90
49777;DHT22;35673;51.482;7.436;2022-07-23T01:51:49;18.10;99.90
49777;DHT22;35673;51.482;7.436;2022-07-23T01:54:27;18.10;99.90
49777;DHT22;35673;51.482;7.436;2022-07-23T01:56:53;18.00;99.90
49777;DHT22;35673;51.482;7.436;2022-07-23T01:59:19;18.00;99.90
49777;DHT22;35673;51.482;7.436;2022-07-23T02:01:44;18.00;99.90
49777;DHT22;35673;51.482;7.436;2022-07-23T02:04:09;18.00;99.90
49777;DHT22;35673;51.482;7.436;2022-07-23T02:06:35;18.00;99.90
49777;DHT22;35673;51.482;7.436;2022-07-23T02:09:00;18.00;99.90
49777;DHT22;35673;51.482;7.436;2022-07-23T02:11:26;18.00;99.90
49777;DHT22;35673;51.482;7.436;2022-07-23T02:13:51;18.00;99.90
49777;DHT22;35673;51.482;7.436;2022-07-23T02:16:17;18.00;99.90
49777;DHT22;35673;51.482;7.436;2022-07-23T02:18:42;17.90;99.90
49777;DHT22;35673;51.482;7.436;2022-07-23T02:21:08;17.90;99.90
49777;DHT22;35673;51.482;7.436;2022-07-23T02:23:33;17.90;99.90
49777;DHT22;35673;51.482;7.436;2022-07-23T02:25:59;17.90;99.90
49777;DHT22;35673;51.482;7.436;2022-07-23T02:28:24;17.80;99.90
49777;DHT22;35673;51.482;7.436;2022-07-23T02:30:50;17.80;99.90
49777;DHT22;35673;51.482;7.436;2022-07-23T02:33:15;17.80;99.90
49777;DHT22;35673;51.482;7.436;2022-07-23T02:35:41;17.80;99.90
49777;DHT22;35673;51.482;7.436;2022-07-23T02:38:06;17.80;99.90
49777;DHT22;35673;51.482;7.436;2022-07-23T02:40:32;17.80;99.90
49777;DHT22;35673;51.482;7.436;2022-07-23T02:42:57;17.80;99.90
49777;DHT22;35673;51.482;7.436;2022-07-23T02:45:23;17.80;99.90
49777;DHT22;35673;51.482;7.436;2022-07-23T02:47:48;17.80;99.90
49777;DHT22;35673;51.482;7.436;2022-07-23T02:50:14;17.70;99.90
49777;DHT22;35673;51.482;7.436;2022-07-23T02:52:39;17.70;99.90
49777;DHT22;35673;51.482;7.436;2022-07-23T02:55:05;17.70;99.90
49777;DHT22;35673;51.482;7.436;2022-07-23T02:57:31;17.70;99.90
49777;DHT22;35673;51.482;7.436;2022-07-23T02:59:56;17.60;99.90
49777;DHT22;35673;51.482;7.436;2022-07-23T03:02:22;17.60;99.90
49777;DHT22;35673;51.482;7.436;2022-07-23T03:04:47;17.50;99.90
49777;DHT22;35673;51.482;7.436;2022-07-23T03:07:13;17.50;99.90
49777;DHT22;35673;51.482;7.436;2022-07-23T03:09:38;17.50;99.90
49777;DHT22;35673;51.482;7.436;2022-07-23T03:12:04;17.50;99.90
49777;DHT22;35673;51.482;7.436;2022-07-23T03:14:29;17.40;99.90
49777;DHT22;35673;51.482;7.436;2022-07-23T03:16:55;17.40;99.90
49777;DHT22;35673;51.482;7.436;2022-07-23T03:19:20;17.40;99.90
49777;DHT22;35673;51.482;7.436;2022-07-23T03:21:46;17.40;99.90
49777;DHT22;35673;51.482;7.436;2022-07-23T03:24:11;17.40;99.90
49777;DHT22;35673;51.482;7.436;2022-07-23T03:26:37;17.30;99.90
49777;DHT22;35673;51.482;7.436;2022-07-23T03:29:02;17.30;99.90
49777;DHT22;35673;51.482;7.436;2022-07-23T03:31:29;17.30;99.90
49777;DHT22;35673;51.482;7.436;2022-07-23T03:33:55;17.30;99.90
49777;DHT22;35673;51.482;7.436;2022-07-23T03:36:21;17.30;99.90
49777;DHT22;35673;51.482;7.436;2022-07-23T03:38:46;17.20;99.90
49777;DHT22;35673;51.482;7.436;2022-07-23T03:41:11;17.30;99.90
49777;DHT22;35673;51.482;7.436;2022-07-23T03:43:37;17.20;99.90
49777;DHT22;35673;51.482;7.436;2022-07-23T03:46:02;17.20;99.90
49777;DHT22;35673;51.482;7.436;2022-07-23T03:48:28;17.20;99.90
49777;DHT22;35673;51.482;7.436;2022-07-23T03:50:53;17.10;99.90
49777;DHT22;35673;51.482;7.436;2022-07-23T03:53:19;17.10;99.90
49777;DHT22;35673;51.482;7.436;2022-07-23T03:55:44;17.00;99.90
49777;DHT22;35673;51.482;7.436;2022-07-23T03:58:10;17.00;99.90
49777;DHT22;35673;51.482;7.436;2022-07-23T04:00:35;17.00;99.90
49777;DHT22;35673;51.482;7.436;2022-07-23T04:03:01;17.00;99.90
49777;DHT22;35673;51.482;7.436;2022-07-23T04:05:26;17.00;99.90
49777;DHT22;35673;51.482;7.436;2022-07-23T04:07:52;17.00;99.90
49777;DHT22;35673;51.482;7.436;2022-07-23T04:10:17;17.00;99.90
49777;DHT22;35673;51.482;7.436;2022-07-23T04:12:42;17.00;99.90
49777;DHT22;35673;51.482;7.436;2022-07-23T04:15:08;17.10;99.90
49777;DHT22;35673;51.482;7.436;2022-07-23T04:17:34;17.00;99.90
49777;DHT22;35673;51.482;7.436;2022-07-23T04:20:00;17.10;99.90
49777;DHT22;35673;51.482;7.436;2022-07-23T04:22:25;17.10;99.90
49777;DHT22;35673;51.482;7.436;2022-07-23T04:24:50;17.10;99.90
49777;DHT22;35673;51.482;7.436;2022-07-23T04:27:16;17.10;99.90
49777;DHT22;35673;51.482;7.436;2022-07-23T04:29:42;17.10;99.90
49777;DHT22;35673;51.482;7.436;2022-07-23T04:32:07;17.20;99.90
49777;DHT22;35673;51.482;7.436;2022-07-23T04:34:33;17.20;99.90
49777;DHT22;35673;51.482;7.436;2022-07-23T04:36:58;17.20;99.90
49777;DHT22;35673;51.482;7.436;2022-07-23T04:39:24;17.20;99.90
49777;DHT22;35673;51.482;7.436;2022-07-23T04:41:49;17.20;99.90
49777;DHT22;35673;51.482;7.436;2022-07-23T04:44:15;17.20;99.90
49777;DHT22;35673;51.482;7.436;2022-07-23T04:46:40;17.20;99.90
49777;DHT22;35673;51.482;7.436;2022-07-23T04:49:06;17.20;99.90
49777;DHT22;35673;51.482;7.436;2022-07-23T04:51:31;17.10;99.90
49777;DHT22;35673;51.482;7.436;2022-07-23T04:53:57;17.10;99.90
49777;DHT22;35673;51.482;7.436;2022-07-23T04:56:22;17.20;99.90
49777;DHT22;35673;51.482;7.436;2022-07-23T04:58:48;17.20;99.90
49777;DHT22;35673;51.482;7.436;2022-07-23T05:01:13;17.20;99.90
49777;DHT22;35673;51.482;7.436;2022-07-23T05:03:39;17.20;99.90
49777;DHT22;35673;51.482;7.436;2022-07-23T05:06:04;17.20;99.90
49777;DHT22;35673;51.482;7.436;2022-07-23T05:08:30;17.30;99.90
49777;DHT22;35673;51.482;7.436;2022-07-23T05:10:55;17.30;99.90
49777;DHT22;35673;51.482;7.436;2022-07-23T05:13:21;17.20;99.90
49777;DHT22;35673;51.482;7.436;2022-07-23T05:15:46;17.20;99.90
49777;DHT22;35673;51.482;7.436;2022-07-23T05:18:12;17.20;99.90
49777;DHT22;35673;51.482;7.436;2022-07-23T05:20:37;17.30;99.90
49777;DHT22;35673;51.482;7.436;2022-07-23T05:23:03;17.30;99.90
49777;DHT22;35673;51.482;7.436;2022-07-23T05:25:29;17.30;99.90
49777;DHT22;35673;51.482;7.436;2022-07-23T05:27:54;17.30;99.90
49777;DHT22;35673;51.482;7.436;2022-07-23T05:30:20;17.40;99.90
49777;DHT22;35673;51.482;7.436;2022-07-23T05:32:45;17.30;99.90
49777;DHT22;35673;51.482;7.436;2022-07-23T05:35:11;17.30;99.90
49777;DHT22;35673;51.482;7.436;2022-07-23T05:37:36;17.30;99.90
49777;DHT22;35673;51.482;7.436;2022-07-23T05:40:03;17.30;99.90
49777;DHT22;35673;51.482;7.436;2022-07-23T05:42:28;17.40;99.90
49777;DHT22;35673;51.482;7.436;2022-07-23T05:44:54;17.40;99.90
49777;DHT22;35673;51.482;7.436;2022-07-23T05:47:19;17.50;99.90
49777;DHT22;35673;51.482;7.436;2022-07-23T05:49:45;17.50;99.90
49777;DHT22;35673;51.482;7.436;2022-07-23T05:52:10;17.60;99.90
49777;DHT22;35673;51.482;7.436;2022-07-23T05:54:36;17.60;99.90
49777;DHT22;35673;51.482;7.436;2022-07-23T05:57:01;17.60;99.90
49777;DHT22;35673;51.482;7.436;2022-07-23T05:59:27;17.70;99.90
49777;DHT22;35673;51.482;7.436;2022-07-23T06:01:52;17.60;99.90
49777;DHT22;35673;51.482;7.436;2022-07-23T06:04:18;17.50;99.90
49777;DHT22;35673;51.482;7.436;2022-07-23T06:06:43;17.50;99.90
49777;DHT22;35673;51.482;7.436;2022-07-23T06:09:09;17.40;99.90
49777;DHT22;35673;51.482;7.436;2022-07-23T06:11:36;17.40;99.90
49777;DHT22;35673;51.482;7.436;2022-07-23T06:14:01;17.40;99.90
49777;DHT22;35673;51.482;7.436;2022-07-23T06:16:27;17.40;99.90
49777;DHT22;35673;51.482;7.436;2022-07-23T06:18:52;17.50;99.90
49777;DHT22;35673;51.482;7.436;2022-07-23T06:21:18;17.60;99.90
49777;DHT22;35673;51.482;7.436;2022-07-23T06:23:43;17.70;99.90
49777;DHT22;35673;51.482;7.436;2022-07-23T06:26:08;17.70;99.90
49777;DHT22;35673;51.482;7.436;2022-07-23T06:28:34;17.80;99.90
49777;DHT22;35673;51.482;7.436;2022-07-23T06:30:59;17.90;99.90
49777;DHT22;35673;51.482;7.436;2022-07-23T06:33:25;17.80;99.90
49777;DHT22;35673;51.482;7.436;2022-07-23T06:35:50;17.90;99.90
49777;DHT22;35673;51.482;7.436;2022-07-23T06:38:16;18.00;99.90
49777;DHT22;35673;51.482;7.436;2022-07-23T06:40:41;18.00;99.90
49777;DHT22;35673;51.482;7.436;2022-07-23T06:43:07;18.00;99.90
49777;DHT22;35673;51.482;7.436;2022-07-23T06:45:32;17.90;99.90
49777;DHT22;35673;51.482;7.436;2022-07-23T06:47:58;17.80;99.90
49777;DHT22;35673;51.482;7.436;2022-07-23T06:50:23;17.90;99.90
49777;DHT22;35673;51.482;7.436;2022-07-23T06:52:49;18.10;99.90
49777;DHT22;35673;51.482;7.436;2022-07-23T06:55:14;18.20;99.90
49777;DHT22;35673;51.482;7.436;2022-07-23T06:57:40;18.40;99.90
49777;DHT22;35673;51.482;7.436;2022-07-23T07:00:05;18.40;99.90
49777;DHT22;35673;51.482;7.436;2022-07-23T07:02:31;18.50;99.90
49777;DHT22;35673;51.482;7.436;2022-07-23T07:04:56;18.60;99.90
49777;DHT22;35673;51.482;7.436;2022-07-23T07:07:22;18.60;99.90
49777;DHT22;35673;51.482;7.436;2022-07-23T07:09:47;18.70;99.90
49777;DHT22;35673;51.482;7.436;2022-07-23T07:12:13;18.70;99.90
49777;DHT22;35673;51.482;7.436;2022-07-23T07:14:38;18.70;99.90
49777;DHT22;35673;51.482;7.436;2022-07-23T07:17:04;18.80;99.90
49777;DHT22;35673;51.482;7.436;2022-07-23T07:19:30;18.90;99.90
49777;DHT22;35673;51.482;7.436;2022-07-23T07:21:55;18.90;99.90
49777;DHT22;35673;51.482;7.436;2022-07-23T07:24:20;18.80;99.90
49777;DHT22;35673;51.482;7.436;2022-07-23T07:26:46;18.90;99.90
49777;DHT22;35673;51.482;7.436;2022-07-23T07:29:11;18.90;99.90
49777;DHT22;35673;51.482;7.436;2022-07-23T07:31:37;18.90;99.90
49777;DHT22;35673;51.482;7.436;2022-07-23T07:34:02;18.90;99.90
49777;DHT22;35673;51.482;7.436;2022-07-23T07:36:28;18.90;99.90
49777;DHT22;35673;51.482;7.436;2022-07-23T07:38:54;18.80;99.90
49777;DHT22;35673;51.482;7.436;2022-07-23T07:41:19;18.90;99.90
49777;DHT22;35673;51.482;7.436;2022-07-23T07:43:49;19.00;99.90
49777;DHT22;35673;51.482;7.436;2022-07-23T07:46:15;19.20;99.90
49777;DHT22;35673;51.482;7.436;2022-07-23T07:48:40;19.40;99.90
49777;DHT22;35673;51.482;7.436;2022-07-23T07:51:06;19.70;99.90
49777;DHT22;35673;51.482;7.436;2022-07-23T07:53:31;19.90;99.90
49777;DHT22;35673;51.482;7.436;2022-07-23T07:55:57;20.10;99.90
49777;DHT22;35673;51.482;7.436;2022-07-23T07:58:22;20.20;99.90
49777;DHT22;35673;51.482;7.436;2022-07-23T08:00:47;20.20;99.90
49777;DHT22;35673;51.482;7.436;2022-07-23T08:03:13;20.30;99.90
49777;DHT22;35673;51.482;7.436;2022-07-23T08:05:39;20.30;99.90
49777;DHT22;35673;51.482;7.436;2022-07-23T08:08:04;20.20;99.90
49777;DHT22;35673;51.482;7.436;2022-07-23T08:10:30;19.90;99.90
49777;DHT22;35673;51.482;7.436;2022-07-23T08:12:57;20.00;99.90
49777;DHT22;35673;51.482;7.436;2022-07-23T08:15:23;20.10;99.90
49777;DHT22;35673;51.482;7.436;2022-07-23T08:17:49;20.20;99.90
49777;DHT22;35673;51.482;7.436;2022-07-23T08:20:15;20.60;99.90
49777;DHT22;35673;51.482;7.436;2022-07-23T08:25:07;21.20;99.90
49777;DHT22;35673;51.482;7.436;2022-07-23T08:27:32;21.40;96.90
49777;DHT22;35673;51.482;7.436;2022-07-23T08:29:58;21.30;95.10
49777;DHT22;35673;51.482;7.436;2022-07-23T08:32:23;21.20;93.40
49777;DHT22;35673;51.482;7.436;2022-07-23T08:34:49;21.00;95.20
49777;DHT22;35673;51.482;7.436;2022-07-23T08:37:14;20.70;98.30
49777;DHT22;35673;51.482;7.436;2022-07-23T08:39:40;20.50;99.10
49777;DHT22;35673;51.482;7.436;2022-07-23T08:42:05;20.60;98.70
49777;DHT22;35673;51.482;7.436;2022-07-23T08:44:31;20.80;97.60
49777;DHT22;35673;51.482;7.436;2022-07-23T08:46:58;21.10;96.70
49777;DHT22;35673;51.482;7.436;2022-07-23T08:49:23;21.40;95.10
49777;DHT22;35673;51.482;7.436;2022-07-23T08:51:49;21.60;92.60
49777;DHT22;35673;51.482;7.436;2022-07-23T08:54:14;21.60;91.50
49777;DHT22;35673;51.482;7.436;2022-07-23T08:56:40;21.40;91.10
49777;DHT22;35673;51.482;7.436;2022-07-23T08:59:05;21.30;90.20
49777;DHT22;35673;51.482;7.436;2022-07-23T09:01:31;21.30;90.20
49777;DHT22;35673;51.482;7.436;2022-07-23T09:03:57;21.50;88.60
49777;DHT22;35673;51.482;7.436;2022-07-23T09:06:22;21.80;84.60
49777;DHT22;35673;51.482;7.436;2022-07-23T09:08:48;22.20;81.60
49777;DHT22;35673;51.482;7.436;2022-07-23T09:11:15;22.30;82.40
49777;DHT22;35673;51.482;7.436;2022-07-23T09:13:42;22.40;79.70
49777;DHT22;35673;51.482;7.436;2022-07-23T09:16:15;22.20;80.60
49777;DHT22;35673;51.482;7.436;2022-07-23T09:19:02;22.10;81.10
49777;DHT22;35673;51.482;7.436;2022-07-23T09:21:27;21.90;82.10
49777;DHT22;35673;51.482;7.436;2022-07-23T09:24:07;21.80;83.40
49777;DHT22;35673;51.482;7.436;2022-07-23T09:29:02;22.00;79.00
49777;DHT22;35673;51.482;7.436;2022-07-23T09:31:48;21.90;79.50
49777;DHT22;35673;51.482;7.436;2022-07-23T09:36:42;21.70;80.40
49777;DHT22;35673;51.482;7.436;2022-07-23T09:39:08;21.90;81.00
49777;DHT22;35673;51.482;7.436;2022-07-23T09:41:38;21.90;81.10
49777;DHT22;35673;51.482;7.436;2022-07-23T09:44:11;22.00;81.10
49777;DHT22;35673;51.482;7.436;2022-07-23T09:46:37;22.00;80.40
49777;DHT22;35673;51.482;7.436;2022-07-23T09:49:14;22.00;78.90
49777;DHT22;35673;51.482;7.436;2022-07-23T09:54:27;21.80;79.00
49777;DHT22;35673;51.482;7.436;2022-07-23T09:56:54;21.80;79.50
49777;DHT22;35673;51.482;7.436;2022-07-23T09:59:25;21.80;79.80
49777;DHT22;35673;51.482;7.436;2022-07-23T10:01:52;21.90;80.70
49777;DHT22;35673;51.482;7.436;2022-07-23T10:04:18;22.00;80.00
49777;DHT22;35673;51.482;7.436;2022-07-23T10:06:44;22.10;79.00
49777;DHT22;35673;51.482;7.436;2022-07-23T10:09:11;22.10;78.60
49777;DHT22;35673;51.482;7.436;2022-07-23T10:11:36;22.10;78.00
49777;DHT22;35673;51.482;7.436;2022-07-23T10:14:02;22.00;74.10
49777;DHT22;35673;51.482;7.436;2022-07-23T10:16:29;22.00;76.60
49777;DHT22;35673;51.482;7.436;2022-07-23T10:18:55;22.00;76.20
49777;DHT22;35673;51.482;7.436;2022-07-23T10:21:30;22.00;75.10
49777;DHT22;35673;51.482;7.436;2022-07-23T10:24:21;22.00;75.30
49777;DHT22;35673;51.482;7.436;2022-07-23T10:26:52;22.10;75.30
49777;DHT22;35673;51.482;7.436;2022-07-23T10:32:06;22.20;76.10
49777;DHT22;35673;51.482;7.436;2022-07-23T10:37:16;22.50;76.10
49777;DHT22;35673;51.482;7.436;2022-07-23T10:42:36;22.70;75.60
49777;DHT22;35673;51.482;7.436;2022-07-23T10:45:02;22.80;74.10
49777;DHT22;35673;51.482;7.436;2022-07-23T10:47:46;22.90;72.80
49777;DHT22;35673;51.482;7.436;2022-07-23T10:50:28;23.00;72.30
49777;DHT22;35673;51.482;7.436;2022-07-23T10:58:00;22.90;72.60
49777;DHT22;35673;51.482;7.436;2022-07-23T11:00:30;22.80;73.10
49777;DHT22;35673;51.482;7.436;2022-07-23T11:02:59;22.80;72.80
49777;DHT22;35673;51.482;7.436;2022-07-23T11:05:26;22.70;73.30
49777;DHT22;35673;51.482;7.436;2022-07-23T11:10:51;22.80;71.00
49777;DHT22;35673;51.482;7.436;2022-07-23T11:13:30;22.90;70.50
49777;DHT22;35673;51.482;7.436;2022-07-23T11:31:52;23.40;69.60
49777;DHT22;35673;51.482;7.436;2022-07-23T11:36:52;23.70;69.60
49777;DHT22;35673;51.482;7.436;2022-07-23T11:39:17;23.70;68.90
49777;DHT22;35673;51.482;7.436;2022-07-23T11:41:44;23.70;68.30
49777;DHT22;35673;51.482;7.436;2022-07-23T11:47:00;23.60;68.50
49777;DHT22;35673;51.482;7.436;2022-07-23T11:49:26;23.70;68.70
49777;DHT22;35673;51.482;7.436;2022-07-23T11:52:08;23.80;66.90
49777;DHT22;35673;51.482;7.436;2022-07-23T11:54:35;23.90;67.20
49777;DHT22;35673;51.482;7.436;2022-07-23T11:57:02;23.90;67.30
49777;DHT22;35673;51.482;7.436;2022-07-23T11:59:29;24.00;68.80
49777;DHT22;35673;51.482;7.436;2022-07-23T12:01:56;24.00;70.90
49777;DHT22;35673;51.482;7.436;2022-07-23T12:04:22;23.80;69.30
49777;DHT22;35673;51.482;7.436;2022-07-23T12:06:48;23.90;67.00
49777;DHT22;35673;51.482;7.436;2022-07-23T12:09:13;24.00;66.40
49777;DHT22;35673;51.482;7.436;2022-07-23T12:11:39;24.20;65.90
49777;DHT22;35673;51.482;7.436;2022-07-23T12:14:04;24.30;67.70
49777;DHT22;35673;51.482;7.436;2022-07-23T12:16:30;24.40;64.50
49777;DHT22;35673;51.482;7.436;2022-07-23T12:18:56;24.30;66.40
49777;DHT22;35673;51.482;7.436;2022-07-23T12:21:21;24.50;65.70
49777;DHT22;35673;51.482;7.436;2022-07-23T12:23:48;24.60;65.00
49777;DHT22;35673;51.482;7.436;2022-07-23T12:26:13;24.80;64.10
49777;DHT22;35673;51.482;7.436;2022-07-23T12:28:39;25.10;65.40
49777;DHT22;35673;51.482;7.436;2022-07-23T12:31:06;25.30;63.40
49777;DHT22;35673;51.482;7.436;2022-07-23T12:33:32;25.30;63.10
49777;DHT22;35673;51.482;7.436;2022-07-23T12:35:59;25.30;63.30
49777;DHT22;35673;51.482;7.436;2022-07-23T12:38:26;25.40;63.20
49777;DHT22;35673;51.482;7.436;2022-07-23T12:40:53;25.40;63.60
49777;DHT22;35673;51.482;7.436;2022-07-23T12:43:20;25.50;63.10
49777;DHT22;35673;51.482;7.436;2022-07-23T12:48:19;25.50;61.90
49777;DHT22;35673;51.482;7.436;2022-07-23T12:50:49;25.70;61.80
49777;DHT22;35673;51.482;7.436;2022-07-23T12:53:16;26.00;61.80
49777;DHT22;35673;51.482;7.436;2022-07-23T12:55:42;26.40;61.00
49777;DHT22;35673;51.482;7.436;2022-07-23T12:58:11;26.50;59.90
49777;DHT22;35673;51.482;7.436;2022-07-23T13:00:59;26.70;60.40
49777;DHT22;35673;51.482;7.436;2022-07-23T13:03:27;26.70;59.60
49777;DHT22;35673;51.482;7.436;2022-07-23T13:05:53;27.10;58.90
49777;DHT22;35673;51.482;7.436;2022-07-23T13:08:19;27.60;57.10
49777;DHT22;35673;51.482;7.436;2022-07-23T13:10:45;28.10;57.40
49777;DHT22;35673;51.482;7.436;2022-07-23T13:13:16;29.50;57.00
49777;DHT22;35673;51.482;7.436;2022-07-23T13:15:42;31.10;54.60
49777;DHT22;35673;51.482;7.436;2022-07-23T13:18:08;32.90;54.80
49777;DHT22;35673;51.482;7.436;2022-07-23T13:20:34;33.90;51.00
49777;DHT22;35673;51.482;7.436;2022-07-23T13:22:59;34.60;53.50
49777;DHT22;35673;51.482;7.436;2022-07-23T13:25:25;34.90;50.80
49777;DHT22;35673;51.482;7.436;2022-07-23T13:27:51;35.10;50.70
49777;DHT22;35673;51.482;7.436;2022-07-23T13:30:16;35.80;49.50
49777;DHT22;35673;51.482;7.436;2022-07-23T13:32:42;36.60;47.20
49777;DHT22;35673;51.482;7.436;2022-07-23T13:35:08;37.10;46.60
49777;DHT22;35673;51.482;7.436;2022-07-23T13:37:33;36.60;46.40
49777;DHT22;35673;51.482;7.436;2022-07-23T13:39:59;37.30;46.40
49777;DHT22;35673;51.482;7.436;2022-07-23T13:42:24;38.00;46.30
49777;DHT22;35673;51.482;7.436;2022-07-23T13:44:50;38.80;46.90
49777;DHT22;35673;51.482;7.436;2022-07-23T13:47:15;39.20;46.00
49777;DHT22;35673;51.482;7.436;2022-07-23T13:49:41;39.20;44.90
49777;DHT22;35673;51.482;7.436;2022-07-23T13:52:06;39.50;49.70
49777;DHT22;35673;51.482;7.436;2022-07-23T13:54:32;39.80;48.00
49777;DHT22;35673;51.482;7.436;2022-07-23T13:56:57;38.50;44.20
49777;DHT22;35673;51.482;7.436;2022-07-23T13:59:23;39.20;47.20
49777;DHT22;35673;51.482;7.436;2022-07-23T14:01:49;39.30;44.60
49777;DHT22;35673;51.482;7.436;2022-07-23T14:04:14;39.60;45.00
49777;DHT22;35673;51.482;7.436;2022-07-23T14:06:40;40.70;43.80
49777;DHT22;35673;51.482;7.436;2022-07-23T14:09:05;41.20;43.70
49777;DHT22;35673;51.482;7.436;2022-07-23T14:11:30;41.30;42.50
49777;DHT22;35673;51.482;7.436;2022-07-23T14:13:57;40.40;43.80
49777;DHT22;35673;51.482;7.436;2022-07-23T14:16:23;41.20;42.40
49777;DHT22;35673;51.482;7.436;2022-07-23T14:18:49;42.00;43.00
49777;DHT22;35673;51.482;7.436;2022-07-23T14:21:14;42.70;41.60
49777;DHT22;35673;51.482;7.436;2022-07-23T14:23:40;43.40;43.80
49777;DHT22;35673;51.482;7.436;2022-07-23T14:26:05;43.00;42.90
49777;DHT22;35673;51.482;7.436;2022-07-23T14:28:34;42.40;43.30
49777;DHT22;35673;51.482;7.436;2022-07-23T14:31:00;42.20;43.60
49777;DHT22;35673;51.482;7.436;2022-07-23T14:33:25;42.60;41.70
49777;DHT22;35673;51.482;7.436;2022-07-23T14:35:51;42.90;41.50
49777;DHT22;35673;51.482;7.436;2022-07-23T14:38:16;43.20;41.90
49777;DHT22;35673;51.482;7.436;2022-07-23T14:40:42;43.60;41.70
49777;DHT22;35673;51.482;7.436;2022-07-23T14:43:08;43.50;40.20
49777;DHT22;35673;51.482;7.436;2022-07-23T14:45:33;43.50;41.50
49777;DHT22;35673;51.482;7.436;2022-07-23T14:47:59;43.60;40.40
49777;DHT22;35673;51.482;7.436;2022-07-23T14:50:24;44.40;41.10
49777;DHT22;35673;51.482;7.436;2022-07-23T14:52:50;42.20;40.90
49777;DHT22;35673;51.482;7.436;2022-07-23T14:55:15;40.80;43.40
49777;DHT22;35673;51.482;7.436;2022-07-23T14:57:42;40.50;48.60
49777;DHT22;35673;51.482;7.436;2022-07-23T15:00:08;38.30;45.90
49777;DHT22;35673;51.482;7.436;2022-07-23T15:02:34;36.30;47.80
49777;DHT22;35673;51.482;7.436;2022-07-23T15:04:59;36.10;48.40
49777;DHT22;35673;51.482;7.436;2022-07-23T15:07:26;38.60;45.80
49777;DHT22;35673;51.482;7.436;2022-07-23T15:09:52;40.50;43.10
49777;DHT22;35673;51.482;7.436;2022-07-23T15:12:18;41.80;41.70
49777;DHT22;35673;51.482;7.436;2022-07-23T15:14:43;42.80;39.70
49777;DHT22;35673;51.482;7.436;2022-07-23T15:17:09;44.00;39.80
49777;DHT22;35673;51.482;7.436;2022-07-23T15:19:35;44.80;38.70
49777;DHT22;35673;51.482;7.436;2022-07-23T15:22:00;45.70;39.30
49777;DHT22;35673;51.482;7.436;2022-07-23T15:24:26;46.40;36.70
49777;DHT22;35673;51.482;7.436;2022-07-23T15:26:51;47.00;40.20
49777;DHT22;35673;51.482;7.436;2022-07-23T15:29:17;45.20;37.00
49777;DHT22;35673;51.482;7.436;2022-07-23T15:31:42;44.30;39.40
49777;DHT22;35673;51.482;7.436;2022-07-23T15:34:08;44.10;39.50
49777;DHT22;35673;51.482;7.436;2022-07-23T15:36:33;44.10;41.60
49777;DHT22;35673;51.482;7.436;2022-07-23T15:38:59;44.50;41.20
49777;DHT22;35673;51.482;7.436;2022-07-23T15:41:24;45.40;41.00
49777;DHT22;35673;51.482;7.436;2022-07-23T15:43:50;45.70;39.10
49777;DHT22;35673;51.482;7.436;2022-07-23T15:46:16;46.00;43.50
49777;DHT22;35673;51.482;7.436;2022-07-23T15:48:42;45.80;39.00
49777;DHT22;35673;51.482;7.436;2022-07-23T15:51:07;43.10;38.30
49777;DHT22;35673;51.482;7.436;2022-07-23T15:53:33;40.40;42.70
49777;DHT22;35673;51.482;7.436;2022-07-23T15:55:58;38.60;44.30
49777;DHT22;35673;51.482;7.436;2022-07-23T15:58:24;37.20;45.30
49777;DHT22;35673;51.482;7.436;2022-07-23T16:00:49;39.60;43.70
49777;DHT22;35673;51.482;7.436;2022-07-23T16:03:15;40.70;40.70
49777;DHT22;35673;51.482;7.436;2022-07-23T16:05:41;38.50;41.10
49777;DHT22;35673;51.482;7.436;2022-07-23T16:08:06;36.80;43.40
49777;DHT22;35673;51.482;7.436;2022-07-23T16:10:32;36.00;44.90
49777;DHT22;35673;51.482;7.436;2022-07-23T16:12:57;37.70;44.00
49777;DHT22;35673;51.482;7.436;2022-07-23T16:15:23;38.90;42.90